Time,TemperatureF,DewpointF,PressureIn,WindDirection,WindDirectionDegrees,WindSpeedMPH,WindSpeedGustMPH,Humidity,HourlyPrecipIn,Conditions,Clouds,dailyrainin,SoftwareType,DateUTC
2013-03-21 00:00:00,23.9,15.9,29.88,SSW,203,0.0,0.0,71,0.00,,,0.00,WUHU216HW,2013-03-21 04:00:00,
2013-03-21 00:05:00,23.9,15.9,29.88,WSW,248,0.0,0.0,71,0.00,,,0.00,WUHU216HW,2013-03-21 04:05:00,
2013-03-21 00:10:00,23.9,15.9,29.88,WSW,248,0.0,0.0,71,0.00,,,0.00,WUHU216HW,2013-03-21 04:10:00,
2013-03-21 00:15:00,23.9,16.2,29.88,West,270,0.0,0.0,72,0.00,,,0.00,WUHU216HW,2013-03-21 04:15:00,
2013-03-21 00:20:00,23.9,16.2,29.88,SW,225,0.0,0.0,72,0.00,,,0.00,WUHU216HW,2013-03-21 04:20:00,
2013-03-21 00:25:00,23.9,16.2,29.88,WSW,248,0.0,0.0,72,0.00,,,0.00,WUHU216HW,2013-03-21 04:25:00,
2013-03-21 00:30:00,23.9,16.2,29.88,SW,225,0.0,0.0,72,0.00,,,0.00,WUHU216HW,2013-03-21 04:30:00,
2013-03-21 00:35:00,23.8,16.0,29.88,SW,225,0.0,0.0,72,0.00,,,0.00,WUHU216HW,2013-03-21 04:35:00,
2013-03-21 00:40:00,23.6,16.2,29.87,SW,225,0.0,0.0,73,0.00,,,0.00,WUHU216HW,2013-03-21 04:40:00,
2013-03-21 00:45:00,23.6,16.2,29.87,West,270,0.0,0.0,73,0.00,,,0.00,WUHU216HW,2013-03-21 04:45:00,
2013-03-21 00:50:00,23.4,16.0,29.87,WNW,293,0.0,0.0,73,0.00,,,0.00,WUHU216HW,2013-03-21 04:50:00,
2013-03-21 00:55:00,23.4,16.3,29.87,WSW,248,0.0,0.0,74,0.00,,,0.00,WUHU216HW,2013-03-21 04:55:00,
2013-03-21 01:00:00,23.4,16.3,29.87,WSW,248,0.0,0.0,74,0.00,,,0.00,WUHU216HW,2013-03-21 05:00:00,
2013-03-21 01:05:00,23.4,16.3,29.87,WSW,248,0.0,0.0,74,0.00,,,0.00,WUHU216HW,2013-03-21 05:05:00,
2013-03-21 01:10:00,23.4,16.7,29.87,WSW,248,0.0,0.0,75,0.00,,,0.00,WUHU216HW,2013-03-21 05:10:00,
2013-03-21 01:15:00,23.4,16.7,29.87,WSW,248,0.0,0.0,75,0.00,,,0.00,WUHU216HW,2013-03-21 05:15:00,
2013-03-21 01:20:00,23.2,16.5,29.87,WSW,248,0.0,0.0,75,0.00,,,0.00,WUHU216HW,2013-03-21 05:20:00,
2013-03-21 01:25:00,23.2,16.5,29.87,West,270,0.0,0.0,75,0.00,,,0.00,WUHU216HW,2013-03-21 05:25:00,
2013-03-21 01:30:00,23.0,16.3,29.87,West,270,0.0,0.0,75,0.00,,,0.00,WUHU216HW,2013-03-21 05:30:00,
2013-03-21 01:35:00,23.0,16.3,29.87,WSW,248,0.0,0.0,75,0.00,,,0.00,WUHU216HW,2013-03-21 05:35:00,
2013-03-21 01:40:00,23.0,16.3,29.87,West,270,0.0,0.0,75,0.00,,,0.00,WUHU216HW,2013-03-21 05:40:00,
2013-03-21 01:45:00,22.9,16.1,29.87,WSW,248,0.0,0.0,75,0.00,,,0.00,WUHU216HW,2013-03-21 05:45:00,
2013-03-21 01:50:00,22.7,15.9,29.86,WSW,248,0.0,0.0,75,0.00,,,0.00,WUHU216HW,2013-03-21 05:50:00,
2013-03-21 01:55:00,22.7,15.9,29.87,SW,225,0.0,0.0,75,0.00,,,0.00,WUHU216HW,2013-03-21 05:55:00,
2013-03-21 02:00:00,22.5,15.8,29.87,WSW,248,0.0,0.0,75,0.00,,,0.00,WUHU216HW,2013-03-21 06:00:00,
2013-03-21 02:05:00,22.5,15.8,29.87,WSW,248,0.0,0.0,75,0.00,,,0.00,WUHU216HW,2013-03-21 06:05:00,
2013-03-21 02:10:00,22.5,15.8,29.87,WSW,248,0.0,0.0,75,0.00,,,0.00,WUHU216HW,2013-03-21 06:10:00,
2013-03-21 02:15:00,22.5,16.0,29.87,WSW,248,0.0,0.0,76,0.00,,,0.00,WUHU216HW,2013-03-21 06:15:00,
2013-03-21 02:20:00,22.5,16.4,29.87,WSW,248,0.0,0.0,77,0.00,,,0.00,WUHU216HW,2013-03-21 06:20:00,
2013-03-21 02:25:00,22.5,16.4,29.87,SW,225,0.0,0.0,77,0.00,,,0.00,WUHU216HW,2013-03-21 06:25:00,
2013-03-21 02:30:00,22.5,16.4,29.86,WSW,248,0.0,0.0,77,0.00,,,0.00,WUHU216HW,2013-03-21 06:30:00,
2013-03-21 02:35:00,22.5,16.4,29.86,SW,225,0.0,0.0,77,0.00,,,0.00,WUHU216HW,2013-03-21 06:35:00,
2013-03-21 02:40:00,22.3,16.2,29.86,WSW,248,0.0,0.0,77,0.00,,,0.00,WUHU216HW,2013-03-21 06:40:00,
2013-03-21 02:45:00,22.3,16.2,29.86,WSW,248,0.0,0.0,77,0.00,,,0.00,WUHU216HW,2013-03-21 06:45:00,
2013-03-21 02:50:00,22.3,16.2,29.86,WSW,248,0.0,0.0,77,0.00,,,0.00,WUHU216HW,2013-03-21 06:50:00,
2013-03-21 02:55:00,22.1,16.0,29.86,WSW,248,0.0,0.0,77,0.00,,,0.00,WUHU216HW,2013-03-21 06:55:00,
2013-03-21 03:00:00,22.1,16.0,29.86,SW,225,0.0,0.0,77,0.00,,,0.00,WUHU216HW,2013-03-21 07:00:00,
2013-03-21 03:05:00,22.1,16.0,29.86,WSW,248,0.0,0.0,77,0.00,,,0.00,WUHU216HW,2013-03-21 07:05:00,
2013-03-21 03:10:00,22.3,16.5,29.86,West,270,0.0,0.0,78,0.00,,,0.00,WUHU216HW,2013-03-21 07:10:00,
2013-03-21 03:15:00,22.3,16.5,29.86,West,270,0.0,0.0,78,0.00,,,0.00,WUHU216HW,2013-03-21 07:15:00,
2013-03-21 03:20:00,22.3,16.2,29.86,WSW,248,0.0,0.0,77,0.00,,,0.00,WUHU216HW,2013-03-21 07:20:00,
2013-03-21 03:25:00,22.1,16.0,29.86,West,270,0.0,0.0,77,0.00,,,0.00,WUHU216HW,2013-03-21 07:25:00,
2013-03-21 03:30:00,22.1,16.0,29.86,WSW,248,0.0,0.0,77,0.00,,,0.00,WUHU216HW,2013-03-21 07:30:00,
2013-03-21 03:35:00,22.0,15.9,29.86,West,270,0.0,0.0,77,0.00,,,0.00,WUHU216HW,2013-03-21 07:35:00,
2013-03-21 03:40:00,22.0,15.9,29.86,West,270,0.0,0.0,77,0.00,,,0.00,WUHU216HW,2013-03-21 07:40:00,
2013-03-21 03:45:00,22.0,16.1,29.85,WSW,248,0.0,0.0,78,0.00,,,0.00,WUHU216HW,2013-03-21 07:45:00,
2013-03-21 03:50:00,22.0,16.1,29.85,West,270,0.0,0.0,78,0.00,,,0.00,WUHU216HW,2013-03-21 07:50:00,
2013-03-21 03:55:00,22.0,16.1,29.84,West,270,0.0,0.0,78,0.00,,,0.00,WUHU216HW,2013-03-21 07:55:00,
2013-03-21 04:00:00,22.0,16.1,29.84,WSW,248,0.0,0.0,78,0.00,,,0.00,WUHU216HW,2013-03-21 08:00:00,
2013-03-21 04:05:00,22.0,16.1,29.84,SSW,203,0.0,0.0,78,0.00,,,0.00,WUHU216HW,2013-03-21 08:05:00,
2013-03-21 04:10:00,22.0,16.5,29.84,WSW,248,0.0,0.0,79,0.00,,,0.00,WUHU216HW,2013-03-21 08:10:00,
2013-03-21 04:15:00,22.0,16.5,29.84,WSW,248,0.0,0.0,79,0.00,,,0.00,WUHU216HW,2013-03-21 08:15:00,
2013-03-21 04:20:00,22.0,16.5,29.84,SW,225,0.0,0.0,79,0.00,,,0.00,WUHU216HW,2013-03-21 08:20:00,
2013-03-21 04:25:00,22.0,16.5,29.83,WSW,248,0.0,0.0,79,0.00,,,0.00,WUHU216HW,2013-03-21 08:25:00,
2013-03-21 04:30:00,22.0,16.5,29.83,West,270,0.0,0.0,79,0.00,,,0.00,WUHU216HW,2013-03-21 08:30:00,
2013-03-21 04:35:00,22.0,16.5,29.83,WSW,248,0.0,0.0,79,0.00,,,0.00,WUHU216HW,2013-03-21 08:35:00,
2013-03-21 04:40:00,22.0,16.5,29.83,WSW,248,0.0,0.0,79,0.00,,,0.00,WUHU216HW,2013-03-21 08:40:00,
2013-03-21 04:45:00,21.8,16.3,29.83,WSW,248,0.0,0.0,79,0.00,,,0.00,WUHU216HW,2013-03-21 08:45:00,
2013-03-21 04:50:00,21.8,16.3,29.83,WSW,248,0.0,0.0,79,0.00,,,0.00,WUHU216HW,2013-03-21 08:50:00,
2013-03-21 04:55:00,21.8,16.3,29.83,WSW,248,0.0,0.0,79,0.00,,,0.00,WUHU216HW,2013-03-21 08:55:00,
2013-03-21 05:00:00,21.4,15.9,29.83,WSW,248,0.0,0.0,79,0.00,,,0.00,WUHU216HW,2013-03-21 09:00:00,
2013-03-21 05:05:00,21.4,15.9,29.83,WSW,248,0.0,0.0,79,0.00,,,0.00,WUHU216HW,2013-03-21 09:05:00,
2013-03-21 05:10:00,21.2,15.8,29.83,SW,225,0.0,0.0,79,0.00,,,0.00,WUHU216HW,2013-03-21 09:10:00,
2013-03-21 05:15:00,21.2,15.8,29.83,WSW,248,0.0,0.0,79,0.00,,,0.00,WUHU216HW,2013-03-21 09:15:00,
2013-03-21 05:20:00,21.2,15.8,29.83,WSW,248,0.0,0.0,79,0.00,,,0.00,WUHU216HW,2013-03-21 09:20:00,
2013-03-21 05:25:00,21.1,15.6,29.83,SW,225,0.0,0.0,79,0.00,,,0.00,WUHU216HW,2013-03-21 09:25:00,
2013-03-21 05:30:00,21.1,15.8,29.83,WSW,248,0.0,0.0,80,0.00,,,0.00,WUHU216HW,2013-03-21 09:30:00,
2013-03-21 05:35:00,21.1,15.8,29.83,SW,225,0.0,0.0,80,0.00,,,0.00,WUHU216HW,2013-03-21 09:35:00,
2013-03-21 05:40:00,21.1,15.8,29.83,WSW,248,0.0,0.0,80,0.00,,,0.00,WUHU216HW,2013-03-21 09:40:00,
2013-03-21 05:45:00,21.1,15.8,29.83,WSW,248,0.0,0.0,80,0.00,,,0.00,WUHU216HW,2013-03-21 09:45:00,
2013-03-21 05:50:00,20.9,15.7,29.83,SW,225,0.0,0.0,80,0.00,,,0.00,WUHU216HW,2013-03-21 09:50:00,
2013-03-21 05:55:00,20.9,15.7,29.83,West,270,0.0,0.0,80,0.00,,,0.00,WUHU216HW,2013-03-21 09:55:00,
2013-03-21 06:00:00,20.9,15.9,29.83,SW,225,0.0,0.0,81,0.00,,,0.00,WUHU216HW,2013-03-21 10:00:00,
2013-03-21 06:05:00,21.1,16.1,29.83,WSW,248,0.0,0.0,81,0.00,,,0.00,WUHU216HW,2013-03-21 10:05:00,
2013-03-21 06:10:00,21.1,15.8,29.83,WSW,248,0.0,0.0,80,0.00,,,0.00,WUHU216HW,2013-03-21 10:10:00,
2013-03-21 06:15:00,20.9,15.7,29.83,WSW,248,0.0,0.0,80,0.00,,,0.00,WUHU216HW,2013-03-21 10:15:00,
2013-03-21 06:20:00,20.9,15.7,29.83,WSW,248,0.0,0.0,80,0.00,,,0.00,WUHU216HW,2013-03-21 10:20:00,
2013-03-21 06:25:00,20.7,15.5,29.83,WSW,248,0.0,0.0,80,0.00,,,0.00,WUHU216HW,2013-03-21 10:25:00,
2013-03-21 06:30:00,20.7,15.5,29.83,SW,225,0.0,0.0,80,0.00,,,0.00,WUHU216HW,2013-03-21 10:30:00,
2013-03-21 06:35:00,20.5,15.3,29.83,WSW,248,0.0,0.0,80,0.00,,,0.00,WUHU216HW,2013-03-21 10:35:00,
2013-03-21 06:40:00,20.5,15.3,29.83,West,270,0.0,0.0,80,0.00,,,0.00,WUHU216HW,2013-03-21 10:40:00,
2013-03-21 06:45:00,20.5,15.3,29.83,WSW,248,0.0,0.0,80,0.00,,,0.00,WUHU216HW,2013-03-21 10:45:00,
2013-03-21 06:50:00,20.5,15.6,29.83,SW,225,0.0,0.0,81,0.00,,,0.00,WUHU216HW,2013-03-21 10:50:00,
2013-03-21 06:55:00,20.7,15.8,29.83,WSW,248,0.0,0.0,81,0.00,,,0.00,WUHU216HW,2013-03-21 10:55:00,
2013-03-21 07:00:00,20.7,15.8,29.83,WSW,248,0.0,0.0,81,0.00,,,0.00,WUHU216HW,2013-03-21 11:00:00,
2013-03-21 07:05:00,20.7,15.8,29.83,WSW,248,0.0,0.0,81,0.00,,,0.00,WUHU216HW,2013-03-21 11:05:00,
2013-03-21 07:10:00,20.9,15.9,29.83,WSW,248,0.0,0.0,81,0.00,,,0.00,WUHU216HW,2013-03-21 11:10:00,
2013-03-21 07:15:00,20.9,16.2,29.83,WSW,248,0.0,0.0,82,0.00,,,0.00,WUHU216HW,2013-03-21 11:15:00,
2013-03-21 07:20:00,20.9,15.9,29.83,SW,225,0.0,0.0,81,0.00,,,0.00,WUHU216HW,2013-03-21 11:20:00,
2013-03-21 07:25:00,20.9,15.9,29.83,SW,225,0.0,0.0,81,0.00,,,0.00,WUHU216HW,2013-03-21 11:25:00,
2013-03-21 07:30:00,20.9,15.9,29.83,WSW,248,0.0,0.0,81,0.00,,,0.00,WUHU216HW,2013-03-21 11:30:00,
2013-03-21 07:35:00,20.9,15.9,29.83,WSW,248,0.0,0.0,81,0.00,,,0.00,WUHU216HW,2013-03-21 11:35:00,
2013-03-21 07:40:00,21.1,16.1,29.83,WSW,248,0.0,0.0,81,0.00,,,0.00,WUHU216HW,2013-03-21 11:40:00,
2013-03-21 07:45:00,21.2,16.3,29.83,WSW,248,0.0,0.0,81,0.00,,,0.00,WUHU216HW,2013-03-21 11:45:00,
2013-03-21 07:50:00,21.2,16.3,29.83,West,270,0.0,0.0,81,0.00,,,0.00,WUHU216HW,2013-03-21 11:50:00,
2013-03-21 07:55:00,21.4,16.5,29.83,SSW,203,0.0,0.0,81,0.00,,,0.00,WUHU216HW,2013-03-21 11:55:00,
2013-03-21 08:00:00,21.6,16.4,29.83,SW,225,0.0,0.0,80,0.00,,,0.00,WUHU216HW,2013-03-21 12:00:00,
2013-03-21 08:05:00,21.8,16.6,29.83,WSW,248,0.0,0.0,80,0.00,,,0.00,WUHU216HW,2013-03-21 12:05:00,
2013-03-21 08:10:00,22.0,16.7,29.83,SW,225,0.0,0.0,80,0.00,,,0.00,WUHU216HW,2013-03-21 12:10:00,
2013-03-21 08:15:00,22.1,16.9,29.83,SW,225,0.0,0.0,80,0.00,,,0.00,WUHU216HW,2013-03-21 12:15:00,
2013-03-21 08:20:00,22.5,17.3,29.83,SW,225,0.0,0.0,80,0.00,,,0.00,WUHU216HW,2013-03-21 12:20:00,
2013-03-21 08:25:00,22.7,17.5,29.83,SW,225,0.0,0.0,80,0.00,,,0.00,WUHU216HW,2013-03-21 12:25:00,
2013-03-21 08:30:00,23.0,17.6,29.83,WSW,248,0.0,0.0,79,0.00,,,0.00,WUHU216HW,2013-03-21 12:30:00,
2013-03-21 08:35:00,23.4,17.6,29.83,SW,225,0.0,0.0,78,0.00,,,0.00,WUHU216HW,2013-03-21 12:35:00,
2013-03-21 08:40:00,23.6,17.7,29.83,SW,225,0.0,0.0,78,0.00,,,0.00,WUHU216HW,2013-03-21 12:40:00,
2013-03-21 08:45:00,24.1,17.9,29.83,West,270,0.0,0.0,77,0.00,,,0.00,WUHU216HW,2013-03-21 12:45:00,
2013-03-21 08:50:00,24.5,18.3,29.82,SW,225,0.0,0.0,77,0.00,,,0.00,WUHU216HW,2013-03-21 12:50:00,
2013-03-21 08:55:00,25.0,18.5,29.82,SW,225,0.0,0.0,76,0.00,,,0.00,WUHU216HW,2013-03-21 12:55:00,
2013-03-21 09:00:00,25.2,18.4,29.82,SSW,203,0.0,0.0,75,0.00,,,0.00,WUHU216HW,2013-03-21 13:00:00,
2013-03-21 09:05:00,25.6,18.1,29.82,SW,225,0.0,0.0,73,0.00,,,0.00,WUHU216HW,2013-03-21 13:05:00,
2013-03-21 09:10:00,25.9,18.1,29.82,SSW,203,0.0,0.0,72,0.00,,,0.00,WUHU216HW,2013-03-21 13:10:00,
2013-03-21 09:15:00,26.1,17.9,29.82,SW,225,0.0,0.0,71,0.00,,,0.00,WUHU216HW,2013-03-21 13:15:00,
2013-03-21 09:20:00,26.3,17.8,29.82,SSW,203,0.0,0.0,70,0.00,,,0.00,WUHU216HW,2013-03-21 13:20:00,
2013-03-21 09:25:00,26.3,17.5,29.82,West,270,0.0,0.0,69,0.00,,,0.00,WUHU216HW,2013-03-21 13:25:00,
2013-03-21 09:30:00,26.3,17.1,29.82,SW,225,0.0,0.0,68,0.00,,,0.00,WUHU216HW,2013-03-21 13:30:00,
2013-03-21 09:35:00,26.3,16.7,29.82,SW,225,0.0,0.0,67,0.00,,,0.00,WUHU216HW,2013-03-21 13:35:00,
2013-03-21 09:40:00,26.8,17.6,29.81,SW,225,0.0,0.0,68,0.00,,,0.00,WUHU216HW,2013-03-21 13:40:00,
2013-03-21 09:45:00,27.4,17.5,29.81,West,270,0.0,0.0,66,0.00,,,0.00,WUHU216HW,2013-03-21 13:45:00,
2013-03-21 09:50:00,27.7,17.1,29.81,West,270,0.0,0.0,64,0.00,,,0.00,WUHU216HW,2013-03-21 13:50:00,
2013-03-21 09:55:00,27.5,16.2,29.81,West,270,0.0,0.0,62,0.00,,,0.00,WUHU216HW,2013-03-21 13:55:00,
2013-03-21 10:00:00,27.4,16.0,29.81,SW,225,0.0,0.0,62,0.00,,,0.00,WUHU216HW,2013-03-21 14:00:00,
2013-03-21 10:05:00,27.4,16.0,29.81,SW,225,0.0,0.0,62,0.00,,,0.00,WUHU216HW,2013-03-21 14:05:00,
2013-03-21 10:10:00,27.5,16.2,29.81,SW,225,0.0,0.0,62,0.00,,,0.00,WUHU216HW,2013-03-21 14:10:00,
2013-03-21 10:15:00,27.7,16.4,29.81,NW,315,0.0,0.0,62,0.00,,,0.00,WUHU216HW,2013-03-21 14:15:00,
2013-03-21 10:20:00,27.9,16.6,29.81,SW,225,0.0,0.0,62,0.00,,,0.00,WUHU216HW,2013-03-21 14:20:00,
2013-03-21 10:25:00,28.4,17.1,29.81,SSW,203,0.0,0.0,62,0.00,,,0.00,WUHU216HW,2013-03-21 14:25:00,
2013-03-21 10:30:00,29.0,16.8,29.81,WSW,248,0.0,0.0,60,0.00,,,0.00,WUHU216HW,2013-03-21 14:30:00,
2013-03-21 10:35:00,29.2,17.0,29.82,WSW,248,0.0,0.0,60,0.00,,,0.00,WUHU216HW,2013-03-21 14:35:00,
2013-03-21 10:40:00,29.5,16.9,29.82,WSW,248,0.0,0.0,59,0.00,,,0.00,WUHU216HW,2013-03-21 14:40:00,
2013-03-21 10:45:00,29.9,16.8,29.82,WSW,248,0.0,0.0,58,0.00,,,0.00,WUHU216HW,2013-03-21 14:45:00,
2013-03-21 10:50:00,30.2,17.6,29.82,West,270,0.0,0.0,59,0.00,,,0.00,WUHU216HW,2013-03-21 14:50:00,
2013-03-21 10:55:00,30.8,17.3,29.82,SW,225,0.0,0.0,57,0.00,,,0.00,WUHU216HW,2013-03-21 14:55:00,
2013-03-21 11:00:00,31.1,17.2,29.81,WNW,293,0.0,0.0,56,0.00,,,0.00,WUHU216HW,2013-03-21 15:00:00,
2013-03-21 11:05:00,31.1,17.2,29.81,WSW,248,0.0,0.0,56,0.00,,,0.00,WUHU216HW,2013-03-21 15:05:00,
2013-03-21 11:10:00,31.5,16.8,29.81,West,270,0.0,0.0,54,0.00,,,0.00,WUHU216HW,2013-03-21 15:10:00,
2013-03-21 11:15:00,31.3,16.1,29.81,SW,225,0.0,0.0,53,0.00,,,0.00,WUHU216HW,2013-03-21 15:15:00,
2013-03-21 11:20:00,31.3,16.1,29.81,SSW,203,0.0,0.0,53,0.00,,,0.00,WUHU216HW,2013-03-21 15:20:00,
2013-03-21 11:25:00,31.1,15.5,29.81,WSW,248,0.0,0.0,52,0.00,,,0.00,WUHU216HW,2013-03-21 15:25:00,
2013-03-21 11:30:00,31.5,16.8,29.81,SSW,203,0.0,0.0,54,0.00,,,0.00,WUHU216HW,2013-03-21 15:30:00,
2013-03-21 11:35:00,32.2,17.4,29.81,SW,225,0.0,0.0,54,0.00,,,0.00,WUHU216HW,2013-03-21 15:35:00,
2013-03-21 11:40:00,32.4,17.6,29.81,SW,225,0.0,0.0,54,0.00,,,0.00,WUHU216HW,2013-03-21 15:40:00,
2013-03-21 11:45:00,32.0,16.4,29.81,WSW,248,0.0,0.0,52,0.00,,,0.00,WUHU216HW,2013-03-21 15:45:00,
2013-03-21 11:50:00,31.5,15.8,29.81,SW,225,0.0,0.0,52,0.00,,,0.00,WUHU216HW,2013-03-21 15:50:00,
2013-03-21 11:55:00,31.3,15.7,29.81,WSW,248,0.0,0.0,52,0.00,,,0.00,WUHU216HW,2013-03-21 15:55:00,
2013-03-21 12:00:00,31.3,15.7,29.81,SW,225,0.0,0.0,52,0.00,,,0.00,WUHU216HW,2013-03-21 16:00:00,
2013-03-21 12:05:00,31.9,17.0,29.81,SW,225,0.0,0.0,54,0.00,,,0.00,WUHU216HW,2013-03-21 16:05:00,
2013-03-21 12:10:00,32.6,17.3,29.81,WSW,248,0.0,0.0,53,0.00,,,0.00,WUHU216HW,2013-03-21 16:10:00,
2013-03-21 12:15:00,32.4,17.6,29.81,WSW,248,0.0,0.0,54,0.00,,,0.00,WUHU216HW,2013-03-21 16:15:00,
2013-03-21 12:20:00,32.8,17.8,29.81,SSW,203,0.0,0.0,54,0.00,,,0.00,WUHU216HW,2013-03-21 16:20:00,
2013-03-21 12:25:00,32.4,17.6,29.80,SW,225,0.0,0.0,54,0.00,,,0.00,WUHU216HW,2013-03-21 16:25:00,
2013-03-21 12:30:00,32.4,18.4,29.80,SW,225,0.0,0.0,56,0.00,,,0.00,WUHU216HW,2013-03-21 16:30:00,
2013-03-21 12:35:00,33.5,19.4,29.80,SW,225,0.0,0.0,56,0.00,,,0.00,WUHU216HW,2013-03-21 16:35:00,
2013-03-21 12:40:00,33.8,19.3,29.80,WSW,248,0.0,0.0,55,0.00,,,0.00,WUHU216HW,2013-03-21 16:40:00,
2013-03-21 12:45:00,34.2,20.1,29.80,NW,315,0.0,0.0,56,0.00,,,0.00,WUHU216HW,2013-03-21 16:45:00,
2013-03-21 12:50:00,34.9,20.3,29.80,SW,225,0.0,0.0,55,0.00,,,0.00,WUHU216HW,2013-03-21 16:50:00,
2013-03-21 12:55:00,35.3,20.7,29.80,SW,225,0.0,0.0,55,0.00,,,0.00,WUHU216HW,2013-03-21 16:55:00,
2013-03-21 13:00:00,35.3,20.3,29.80,SSW,203,0.0,0.0,54,0.00,,,0.00,WUHU216HW,2013-03-21 17:00:00,
2013-03-21 13:05:00,34.9,20.8,29.80,SW,225,0.0,0.0,56,0.00,,,0.00,WUHU216HW,2013-03-21 17:05:00,
2013-03-21 13:10:00,34.2,20.1,29.80,SW,225,0.0,0.0,56,0.00,,,0.00,WUHU216HW,2013-03-21 17:10:00,
2013-03-21 13:15:00,33.7,20.0,29.79,SW,225,0.0,0.0,57,0.00,,,0.00,WUHU216HW,2013-03-21 17:15:00,
2013-03-21 13:20:00,33.8,21.0,29.79,West,270,0.0,0.0,59,0.00,,,0.00,WUHU216HW,2013-03-21 17:20:00,
2013-03-21 13:25:00,33.8,21.0,29.79,SW,225,0.0,0.0,59,0.00,,,0.00,WUHU216HW,2013-03-21 17:25:00,
2013-03-21 13:30:00,33.8,21.4,29.79,WSW,248,0.0,0.0,60,0.00,,,0.00,WUHU216HW,2013-03-21 17:30:00,
2013-03-21 13:35:00,33.7,21.6,29.79,SSW,203,0.0,0.0,61,0.00,,,0.00,WUHU216HW,2013-03-21 17:35:00,
2013-03-21 13:40:00,33.5,21.4,29.79,SSW,203,0.0,0.0,61,0.00,,,0.00,WUHU216HW,2013-03-21 17:40:00,
2013-03-21 13:45:00,34.2,22.5,29.79,West,270,0.0,0.0,62,0.00,,,0.00,WUHU216HW,2013-03-21 17:45:00,
2013-03-21 13:50:00,34.6,22.1,29.79,SW,225,0.0,0.0,60,0.00,,,0.00,WUHU216HW,2013-03-21 17:50:00,
2013-03-21 13:55:00,34.4,22.7,29.79,SW,225,0.0,0.0,62,0.00,,,0.00,WUHU216HW,2013-03-21 17:55:00,
2013-03-21 14:00:00,34.4,22.7,29.79,SW,225,0.0,0.0,62,0.00,,,0.00,WUHU216HW,2013-03-21 18:00:00,
2013-03-21 14:05:00,34.2,22.9,29.78,WSW,248,0.0,0.0,63,0.00,,,0.00,WUHU216HW,2013-03-21 18:05:00,
2013-03-21 14:10:00,34.4,23.8,29.78,West,270,0.0,0.0,65,0.00,,,0.00,WUHU216HW,2013-03-21 18:10:00,
2013-03-21 14:15:00,34.2,22.9,29.78,WSW,248,0.0,0.0,63,0.00,,,0.00,WUHU216HW,2013-03-21 18:15:00,
2013-03-21 14:20:00,33.8,22.9,29.78,SW,225,0.0,0.0,64,0.00,,,0.00,WUHU216HW,2013-03-21 18:20:00,
2013-03-21 14:25:00,33.8,23.2,29.78,WSW,248,0.0,0.0,65,0.00,,,0.00,WUHU216HW,2013-03-21 18:25:00,
2013-03-21 14:30:00,33.3,22.4,29.78,SW,225,0.0,0.0,64,0.00,,,0.00,WUHU216HW,2013-03-21 18:30:00,
2013-03-21 14:35:00,33.1,23.0,29.78,SW,225,0.0,0.0,66,0.00,,,0.00,WUHU216HW,2013-03-21 18:35:00,
2013-03-21 14:40:00,32.9,22.4,29.78,SW,225,0.0,0.0,65,0.00,,,0.00,WUHU216HW,2013-03-21 18:40:00,
2013-03-21 14:45:00,32.8,22.6,29.78,SSW,203,0.0,0.0,66,0.00,,,0.00,WUHU216HW,2013-03-21 18:45:00,
2013-03-21 14:50:00,32.8,23.0,29.78,WSW,248,0.0,0.0,67,0.00,,,0.00,WUHU216HW,2013-03-21 18:50:00,
2013-03-21 14:55:00,32.8,23.0,29.77,WSW,248,0.0,0.0,67,0.00,,,0.00,WUHU216HW,2013-03-21 18:55:00,
2013-03-21 15:00:00,32.8,23.3,29.77,SW,225,0.0,0.0,68,0.00,,,0.00,WUHU216HW,2013-03-21 19:00:00,
2013-03-21 15:05:00,32.9,23.5,29.77,WSW,248,0.0,0.0,68,0.00,,,0.00,WUHU216HW,2013-03-21 19:05:00,
2013-03-21 15:10:00,33.1,24.0,29.77,SW,225,0.0,0.0,69,0.00,,,0.00,WUHU216HW,2013-03-21 19:10:00,
2013-03-21 15:15:00,32.9,23.9,29.77,SW,225,0.0,0.0,69,0.00,,,0.00,WUHU216HW,2013-03-21 19:15:00,
2013-03-21 15:20:00,32.8,24.0,29.77,SSW,203,0.0,0.0,70,0.00,,,0.00,WUHU216HW,2013-03-21 19:20:00,
2013-03-21 15:25:00,32.6,23.9,29.77,SW,225,0.0,0.0,70,0.00,,,0.00,WUHU216HW,2013-03-21 19:25:00,
2013-03-21 15:30:00,32.2,23.9,29.77,WSW,248,0.0,0.0,71,0.00,,,0.00,WUHU216HW,2013-03-21 19:30:00,
2013-03-21 15:35:00,32.2,23.9,29.77,WSW,248,0.0,0.0,71,0.00,,,0.00,WUHU216HW,2013-03-21 19:35:00,
2013-03-21 15:40:00,32.6,24.8,29.77,West,270,0.0,0.0,73,0.00,,,0.00,WUHU216HW,2013-03-21 19:40:00,
2013-03-21 15:45:00,33.1,25.4,29.77,WSW,248,0.0,0.0,73,0.00,,,0.00,WUHU216HW,2013-03-21 19:45:00,
2013-03-21 15:50:00,33.5,25.0,29.77,SSW,203,0.0,0.0,71,0.00,,,0.00,WUHU216HW,2013-03-21 19:50:00,
2013-03-21 15:55:00,33.3,24.8,29.77,WSW,248,0.0,0.0,71,0.00,,,0.00,WUHU216HW,2013-03-21 19:55:00,
2013-03-21 16:00:00,32.8,25.0,29.77,SW,225,0.0,0.0,73,0.00,,,0.00,WUHU216HW,2013-03-21 20:00:00,
2013-03-21 16:05:00,32.4,24.7,29.77,SW,225,0.0,0.0,73,0.00,,,0.00,WUHU216HW,2013-03-21 20:05:00,
2013-03-21 16:10:00,32.0,25.0,29.77,WSW,248,0.0,0.0,75,0.00,,,0.00,WUHU216HW,2013-03-21 20:10:00,
2013-03-21 16:15:00,32.0,25.4,29.77,SW,225,0.0,0.0,76,0.00,,,0.00,WUHU216HW,2013-03-21 20:15:00,
2013-03-21 16:20:00,32.0,25.4,29.77,WSW,248,0.0,0.0,76,0.00,,,0.00,WUHU216HW,2013-03-21 20:20:00,
2013-03-21 16:25:00,31.9,25.2,29.77,SW,225,0.0,0.0,76,0.00,,,0.00,WUHU216HW,2013-03-21 20:25:00,
2013-03-21 16:30:00,31.7,25.0,29.76,SSW,203,0.0,0.0,76,0.00,,,0.00,WUHU216HW,2013-03-21 20:30:00,
2013-03-21 16:35:00,31.5,25.1,29.76,SW,225,0.0,0.0,77,0.00,,,0.00,WUHU216HW,2013-03-21 20:35:00,
2013-03-21 16:40:00,31.5,25.1,29.76,WSW,248,0.0,0.0,77,0.00,,,0.00,WUHU216HW,2013-03-21 20:40:00,
2013-03-21 16:45:00,31.7,25.3,29.77,WSW,248,0.0,0.0,77,0.00,,,0.00,WUHU216HW,2013-03-21 20:45:00,
2013-03-21 16:50:00,31.9,25.5,29.77,SW,225,0.0,0.0,77,0.00,,,0.00,WUHU216HW,2013-03-21 20:50:00,
2013-03-21 16:55:00,32.0,26.0,29.77,WSW,248,0.0,0.0,78,0.00,,,0.00,WUHU216HW,2013-03-21 20:55:00,
2013-03-21 17:00:00,32.0,26.0,29.77,West,270,0.0,0.0,78,0.00,,,0.00,WUHU216HW,2013-03-21 21:00:00,
2013-03-21 17:05:00,32.0,26.0,29.77,SSW,203,0.0,0.0,78,0.00,,,0.00,WUHU216HW,2013-03-21 21:05:00,
2013-03-21 17:10:00,32.0,26.0,29.77,SW,225,0.0,0.0,78,0.00,,,0.00,WUHU216HW,2013-03-21 21:10:00,
2013-03-21 17:15:00,31.9,25.8,29.77,SW,225,0.0,0.0,78,0.00,,,0.00,WUHU216HW,2013-03-21 21:15:00,
2013-03-21 17:20:00,31.7,25.7,29.77,West,270,0.0,0.0,78,0.00,,,0.00,WUHU216HW,2013-03-21 21:20:00,
2013-03-21 17:25:00,31.9,25.8,29.77,WSW,248,0.0,0.0,78,0.00,,,0.00,WUHU216HW,2013-03-21 21:25:00,
2013-03-21 17:30:00,32.0,26.0,29.77,SW,225,0.0,0.0,78,0.00,,,0.00,WUHU216HW,2013-03-21 21:30:00,
2013-03-21 17:35:00,32.0,26.0,29.77,SW,225,0.0,0.0,78,0.00,,,0.00,WUHU216HW,2013-03-21 21:35:00,
2013-03-21 17:40:00,32.0,26.0,29.77,WSW,248,0.0,0.0,78,0.00,,,0.00,WUHU216HW,2013-03-21 21:40:00,
2013-03-21 17:45:00,31.9,25.8,29.77,WSW,248,0.0,0.0,78,0.00,,,0.00,WUHU216HW,2013-03-21 21:45:00,
2013-03-21 17:50:00,31.9,25.8,29.77,WSW,248,0.0,0.0,78,0.00,,,0.00,WUHU216HW,2013-03-21 21:50:00,
2013-03-21 17:55:00,32.0,26.0,29.77,SW,225,0.0,0.0,78,0.00,,,0.00,WUHU216HW,2013-03-21 21:55:00,
2013-03-21 18:00:00,31.9,25.8,29.77,SW,225,0.0,0.0,78,0.00,,,0.00,WUHU216HW,2013-03-21 22:00:00,
2013-03-21 18:05:00,31.9,26.1,29.77,WSW,248,0.0,0.0,79,0.00,,,0.00,WUHU216HW,2013-03-21 22:05:00,
2013-03-21 18:10:00,31.7,25.9,29.77,SW,225,0.0,0.0,79,0.00,,,0.00,WUHU216HW,2013-03-21 22:10:00,
2013-03-21 18:15:00,31.5,25.7,29.77,SW,225,0.0,0.0,79,0.00,,,0.00,WUHU216HW,2013-03-21 22:15:00,
2013-03-21 18:20:00,31.9,26.5,29.77,SW,225,0.0,0.0,80,0.00,,,0.00,WUHU216HW,2013-03-21 22:20:00,
2013-03-21 18:25:00,32.0,26.6,29.77,SW,225,0.0,0.0,80,0.00,,,0.00,WUHU216HW,2013-03-21 22:25:00,
2013-03-21 18:30:00,31.9,26.5,29.77,SW,225,0.0,0.0,80,0.00,,,0.00,WUHU216HW,2013-03-21 22:30:00,
2013-03-21 18:35:00,31.7,26.3,29.77,WSW,248,0.0,0.0,80,0.00,,,0.00,WUHU216HW,2013-03-21 22:35:00,
2013-03-21 18:40:00,31.5,26.1,29.77,WSW,248,0.0,0.0,80,0.00,,,0.00,WUHU216HW,2013-03-21 22:40:00,
2013-03-21 18:45:00,31.3,26.2,29.77,WSW,248,0.0,0.0,81,0.00,,,0.00,WUHU216HW,2013-03-21 22:45:00,
2013-03-21 18:50:00,31.3,26.2,29.77,SW,225,0.0,0.0,81,0.00,,,0.00,WUHU216HW,2013-03-21 22:50:00,
2013-03-21 18:55:00,31.3,26.5,29.77,West,270,0.0,0.0,82,0.00,,,0.00,WUHU216HW,2013-03-21 22:55:00,
2013-03-21 19:00:00,31.3,26.5,29.77,WSW,248,0.0,0.0,82,0.00,,,0.00,WUHU216HW,2013-03-21 23:00:00,
2013-03-21 19:05:00,31.3,26.2,29.77,WSW,248,0.0,0.0,81,0.00,,,0.00,WUHU216HW,2013-03-21 23:05:00,
2013-03-21 19:10:00,31.3,26.2,29.77,WSW,248,0.0,0.0,81,0.00,,,0.00,WUHU216HW,2013-03-21 23:10:00,
2013-03-21 19:15:00,31.1,26.0,29.77,SW,225,0.0,0.0,81,0.00,,,0.00,WUHU216HW,2013-03-21 23:15:00,
2013-03-21 19:20:00,31.0,25.8,29.77,WSW,248,0.0,0.0,81,0.00,,,0.00,WUHU216HW,2013-03-21 23:20:00,
2013-03-21 19:25:00,30.8,25.9,29.78,West,270,0.0,0.0,82,0.00,,,0.00,WUHU216HW,2013-03-21 23:25:00,
2013-03-21 19:30:00,30.8,25.9,29.77,SSW,203,0.0,0.0,82,0.00,,,0.00,WUHU216HW,2013-03-21 23:30:00,
2013-03-21 19:35:00,30.8,26.3,29.77,WSW,248,0.0,0.0,83,0.00,,,0.00,WUHU216HW,2013-03-21 23:35:00,
2013-03-21 19:40:00,30.6,26.1,29.78,West,270,0.0,0.0,83,0.00,,,0.00,WUHU216HW,2013-03-21 23:40:00,
2013-03-21 19:45:00,30.4,25.9,29.78,West,270,0.0,0.0,83,0.00,,,0.00,WUHU216HW,2013-03-21 23:45:00,
2013-03-21 19:50:00,30.1,25.6,29.78,NW,315,0.0,0.0,83,0.00,,,0.00,WUHU216HW,2013-03-21 23:50:00,
2013-03-21 19:55:00,29.5,25.3,29.79,West,270,0.0,0.0,84,0.00,,,0.00,WUHU216HW,2013-03-21 23:55:00,
2013-03-21 20:00:00,29.3,25.4,29.79,WNW,293,0.0,0.0,85,0.00,,,0.00,WUHU216HW,2013-03-22 00:00:00,
2013-03-21 20:05:00,29.0,25.3,29.79,WNW,293,0.0,0.0,86,0.00,,,0.00,WUHU216HW,2013-03-22 00:05:00,
2013-03-21 20:10:00,28.8,25.1,29.79,WNW,293,0.0,0.0,86,0.00,,,0.00,WUHU216HW,2013-03-22 00:10:00,
2013-03-21 20:15:00,28.6,24.9,29.79,NW,315,0.0,0.0,86,0.00,,,0.00,WUHU216HW,2013-03-22 00:15:00,
2013-03-21 20:20:00,28.6,24.9,29.79,NW,315,0.0,0.0,86,0.00,,,0.00,WUHU216HW,2013-03-22 00:20:00,
2013-03-21 20:25:00,28.4,24.8,29.79,WNW,293,0.0,0.0,86,0.00,,,0.00,WUHU216HW,2013-03-22 00:25:00,
2013-03-21 20:30:00,28.4,24.8,29.79,West,270,0.0,0.0,86,0.00,,,0.00,WUHU216HW,2013-03-22 00:30:00,
2013-03-21 20:35:00,28.6,24.9,29.79,NW,315,0.0,0.0,86,0.00,,,0.00,WUHU216HW,2013-03-22 00:35:00,
2013-03-21 20:40:00,28.4,24.8,29.80,West,270,0.0,0.0,86,0.00,,,0.00,WUHU216HW,2013-03-22 00:40:00,
2013-03-21 20:45:00,28.3,24.6,29.79,West,270,0.0,0.0,86,0.00,,,0.00,WUHU216HW,2013-03-22 00:45:00,
2013-03-21 20:50:00,28.1,24.4,29.79,WNW,293,0.0,0.0,86,0.00,,,0.00,WUHU216HW,2013-03-22 00:50:00,
2013-03-21 20:55:00,27.9,23.9,29.79,WSW,248,0.0,0.0,85,0.00,,,0.00,WUHU216HW,2013-03-22 00:55:00,
2013-03-21 21:00:00,27.9,23.9,29.80,West,270,0.0,0.0,85,0.00,,,0.00,WUHU216HW,2013-03-22 01:00:00,
2013-03-21 21:05:00,27.9,23.9,29.80,WNW,293,0.0,0.0,85,0.00,,,0.00,WUHU216HW,2013-03-22 01:05:00,
2013-03-21 21:10:00,27.9,23.9,29.80,WNW,293,0.0,0.0,85,0.00,,,0.00,WUHU216HW,2013-03-22 01:10:00,
2013-03-21 21:15:00,27.9,23.9,29.80,WNW,293,0.0,0.0,85,0.00,,,0.00,WUHU216HW,2013-03-22 01:15:00,
2013-03-21 21:20:00,28.1,24.1,29.80,NNW,338,0.0,0.0,85,0.00,,,0.00,WUHU216HW,2013-03-22 01:20:00,
2013-03-21 21:25:00,28.1,24.1,29.80,West,270,0.0,0.0,85,0.00,,,0.00,WUHU216HW,2013-03-22 01:25:00,
2013-03-21 21:30:00,28.1,24.1,29.80,WNW,293,0.0,0.0,85,0.00,,,0.00,WUHU216HW,2013-03-22 01:30:00,
2013-03-21 21:35:00,28.1,24.1,29.80,WNW,293,0.0,0.0,85,0.00,,,0.00,WUHU216HW,2013-03-22 01:35:00,
2013-03-21 21:40:00,28.1,23.9,29.80,West,270,0.0,0.0,84,0.00,,,0.00,WUHU216HW,2013-03-22 01:40:00,
2013-03-21 21:45:00,28.3,24.0,29.80,WSW,248,0.0,0.0,84,0.00,,,0.00,WUHU216HW,2013-03-22 01:45:00,
2013-03-21 21:50:00,28.3,23.4,29.81,West,270,0.0,0.0,82,0.00,,,0.00,WUHU216HW,2013-03-22 01:50:00,
2013-03-21 21:55:00,28.4,22.8,29.81,WSW,248,0.0,0.0,79,0.00,,,0.00,WUHU216HW,2013-03-22 01:55:00,
2013-03-21 22:00:00,28.4,22.8,29.81,West,270,0.0,0.0,79,0.00,,,0.00,WUHU216HW,2013-03-22 02:00:00,
2013-03-21 22:05:00,28.4,22.2,29.81,WNW,293,0.0,0.0,77,0.00,,,0.00,WUHU216HW,2013-03-22 02:05:00,
2013-03-21 22:10:00,28.4,22.2,29.81,West,270,0.0,0.0,77,0.00,,,0.00,WUHU216HW,2013-03-22 02:10:00,
2013-03-21 22:15:00,28.4,21.5,29.81,West,270,0.0,0.0,75,0.00,,,0.00,WUHU216HW,2013-03-22 02:15:00,
2013-03-21 22:20:00,28.4,21.5,29.81,WSW,248,0.0,0.0,75,0.00,,,0.00,WUHU216HW,2013-03-22 02:20:00,
2013-03-21 22:25:00,28.4,21.8,29.81,West,270,0.0,0.0,76,0.00,,,0.00,WUHU216HW,2013-03-22 02:25:00,
2013-03-21 22:30:00,28.4,21.5,29.81,WSW,248,0.0,0.0,75,0.00,,,0.00,WUHU216HW,2013-03-22 02:30:00,
2013-03-21 22:35:00,28.4,21.5,29.81,SW,225,0.0,0.0,75,0.00,,,0.00,WUHU216HW,2013-03-22 02:35:00,
2013-03-21 22:40:00,28.4,21.5,29.81,West,270,0.0,0.0,75,0.00,,,0.00,WUHU216HW,2013-03-22 02:40:00,
2013-03-21 22:45:00,28.4,21.3,29.81,NW,315,0.0,0.0,74,0.00,,,0.00,WUHU216HW,2013-03-22 02:45:00,
2013-03-21 22:50:00,28.4,21.5,29.81,West,270,0.0,0.0,75,0.00,,,0.00,WUHU216HW,2013-03-22 02:50:00,
2013-03-21 22:55:00,28.6,21.7,29.81,West,270,0.0,0.0,75,0.00,,,0.00,WUHU216HW,2013-03-22 02:55:00,
2013-03-21 23:00:00,28.6,21.7,29.81,WNW,293,0.0,0.0,75,0.00,,,0.00,WUHU216HW,2013-03-22 03:00:00,
2013-03-21 23:05:00,28.6,21.7,29.81,WNW,293,0.0,0.0,75,0.00,,,0.00,WUHU216HW,2013-03-22 03:05:00,
2013-03-21 23:10:00,28.6,21.7,29.81,WNW,293,0.0,0.0,75,0.00,,,0.00,WUHU216HW,2013-03-22 03:10:00,
2013-03-21 23:15:00,28.6,21.7,29.82,West,270,0.0,0.0,75,0.00,,,0.00,WUHU216HW,2013-03-22 03:15:00,
2013-03-21 23:20:00,28.6,21.7,29.82,WSW,248,0.0,0.0,75,0.00,,,0.00,WUHU216HW,2013-03-22 03:20:00,
2013-03-21 23:25:00,28.6,21.7,29.81,West,270,0.0,0.0,75,0.00,,,0.00,WUHU216HW,2013-03-22 03:25:00,
2013-03-21 23:30:00,28.6,22.0,29.81,West,270,0.0,0.0,76,0.00,,,0.00,WUHU216HW,2013-03-22 03:30:00,
2013-03-21 23:35:00,28.6,22.0,29.82,NW,315,0.0,0.0,76,0.00,,,0.00,WUHU216HW,2013-03-22 03:35:00,
2013-03-21 23:40:00,28.6,22.0,29.82,WNW,293,0.0,0.0,76,0.00,,,0.00,WUHU216HW,2013-03-22 03:40:00,
2013-03-21 23:45:00,28.6,22.3,29.82,West,270,0.0,0.0,77,0.00,,,0.00,WUHU216HW,2013-03-22 03:45:00,
2013-03-21 23:50:00,28.4,22.2,29.82,WNW,293,0.0,0.0,77,0.00,,,0.00,WUHU216HW,2013-03-22 03:50:00,
2013-03-21 23:55:00,28.4,22.4,29.82,WNW,293,0.0,0.0,78,0.00,,,0.00,WUHU216HW,2013-03-22 03:55:00,